createdAt,value
2022-10-16T00:00:53.278Z,99.90
2022-10-16T00:03:38.522Z,99.90
2022-10-16T00:06:10.404Z,99.90
2022-10-16T00:08:43.162Z,99.90
2022-10-16T00:11:16.589Z,99.90
2022-10-16T00:13:51.008Z,99.90
2022-10-16T00:16:25.282Z,99.90
2022-10-16T00:18:57.105Z,99.90
2022-10-16T00:21:30.345Z,99.90
2022-10-16T00:24:20.505Z,99.90
2022-10-16T00:26:54.426Z,99.90
2022-10-16T00:29:25.972Z,99.90
2022-10-16T00:31:59.896Z,99.90
2022-10-16T00:34:31.437Z,99.90
2022-10-16T00:37:02.780Z,99.90
2022-10-16T00:39:34.266Z,99.90
2022-10-16T00:42:05.508Z,99.90
2022-10-16T00:44:48.653Z,99.90
2022-10-16T00:47:26.620Z,99.90
2022-10-16T00:50:03.900Z,99.90
2022-10-16T00:52:35.289Z,99.90
2022-10-16T00:55:08.664Z,99.90
2022-10-16T00:57:40.229Z,99.90
2022-10-16T01:00:14.947Z,99.90
2022-10-16T01:02:48.682Z,99.90
2022-10-16T01:05:21.644Z,99.90
2022-10-16T01:08:02.145Z,99.90
2022-10-16T01:10:38.842Z,99.90
2022-10-16T01:13:11.884Z,99.90
2022-10-16T01:15:48.546Z,99.90
2022-10-16T01:18:30.741Z,99.90
2022-10-16T01:21:05.007Z,99.90
2022-10-16T01:23:47.845Z,99.90
2022-10-16T01:26:34.970Z,99.90
2022-10-16T01:29:15.593Z,99.90
2022-10-16T01:31:52.281Z,99.90
2022-10-16T01:34:28.394Z,99.90
2022-10-16T01:37:06.255Z,99.90
2022-10-16T01:39:41.214Z,99.90
2022-10-16T01:42:17.349Z,99.90
2022-10-16T01:44:52.939Z,99.90
2022-10-16T01:47:28.275Z,99.90
2022-10-16T01:50:01.854Z,99.90
2022-10-16T01:52:33.893Z,99.90
2022-10-16T01:55:10.750Z,99.90
2022-10-16T01:57:45.392Z,99.90
2022-10-16T02:00:23.788Z,99.90
2022-10-16T02:02:58.021Z,99.90
2022-10-16T02:05:33.194Z,99.90
2022-10-16T02:08:05.709Z,99.90
2022-10-16T02:10:38.448Z,99.90
2022-10-16T02:13:13.768Z,99.90
2022-10-16T02:15:47.479Z,99.90
2022-10-16T02:18:19.295Z,99.90
2022-10-16T02:20:56.813Z,99.90
2022-10-16T02:23:37.124Z,99.90
2022-10-16T02:26:11.001Z,99.90
2022-10-16T02:28:49.316Z,99.90
2022-10-16T02:31:28.905Z,99.90
2022-10-16T02:34:02.987Z,99.90
2022-10-16T02:36:34.627Z,99.90
2022-10-16T02:39:07.060Z,99.90
2022-10-16T02:41:38.301Z,99.90
2022-10-16T02:44:09.732Z,99.90
2022-10-16T02:46:43.657Z,99.90
2022-10-16T02:49:15.130Z,99.90
2022-10-16T02:51:46.292Z,99.90
2022-10-16T02:54:17.702Z,99.90
2022-10-16T02:56:48.882Z,99.90
2022-10-16T02:59:20.410Z,99.90
2022-10-16T03:01:54.315Z,99.90
2022-10-16T03:04:25.681Z,99.90
2022-10-16T03:06:56.853Z,99.90
2022-10-16T03:09:28.356Z,99.90
2022-10-16T03:11:59.531Z,99.90
2022-10-16T03:14:32.388Z,99.90
2022-10-16T03:17:06.078Z,99.90
2022-10-16T03:19:37.659Z,99.90
2022-10-16T03:22:09.618Z,99.90
2022-10-16T03:24:41.138Z,99.90
2022-10-16T03:27:12.319Z,99.90
2022-10-16T03:29:43.768Z,99.90
2022-10-16T03:32:17.498Z,99.90
2022-10-16T03:34:49.025Z,99.90
2022-10-16T03:37:20.210Z,99.90
2022-10-16T03:39:51.774Z,99.90
2022-10-16T03:42:23.241Z,99.90
2022-10-16T03:44:54.633Z,99.90
2022-10-16T03:47:28.901Z,99.90
2022-10-16T03:50:00.678Z,99.90
2022-10-16T03:52:34.250Z,99.90
2022-10-16T03:55:05.803Z,99.90
2022-10-16T03:57:37.019Z,99.90
2022-10-16T04:00:09.790Z,99.90
2022-10-16T04:05:37.873Z,99.90
2022-10-16T04:08:08.998Z,99.90
2022-10-16T04:10:40.446Z,99.90
2022-10-16T04:13:11.545Z,99.90
2022-10-16T04:15:43.049Z,99.90
2022-10-16T04:18:16.856Z,99.90
2022-10-16T04:20:48.241Z,99.90
2022-10-16T04:23:19.575Z,99.90
2022-10-16T04:25:51.031Z,99.90
2022-10-16T04:28:22.333Z,99.90
2022-10-16T04:30:53.782Z,99.90
2022-10-16T04:33:27.611Z,99.90
2022-10-16T04:36:03.110Z,99.90
2022-10-16T04:38:34.318Z,99.90
2022-10-16T04:41:05.717Z,99.90
2022-10-16T04:43:37.120Z,99.90
2022-10-16T04:46:08.841Z,99.90
2022-10-16T04:48:42.869Z,99.90
2022-10-16T04:51:14.214Z,99.90
2022-10-16T04:53:45.431Z,99.90
2022-10-16T04:56:17.107Z,99.90
2022-10-16T04:58:48.218Z,99.90
2022-10-16T05:01:19.671Z,99.90
2022-10-16T05:03:53.513Z,99.90
2022-10-16T05:06:24.887Z,99.90
2022-10-16T05:08:56.402Z,99.90
2022-10-16T05:11:27.910Z,99.90
2022-10-16T05:13:59.230Z,99.90
2022-10-16T05:16:31.401Z,99.90
2022-10-16T05:19:26.232Z,99.90
2022-10-16T05:21:56.359Z,99.90
2022-10-16T05:24:27.794Z,99.90
2022-10-16T05:26:59.336Z,99.90
2022-10-16T05:29:30.839Z,99.90
2022-10-16T05:32:02.623Z,99.90
2022-10-16T05:34:36.577Z,99.90
2022-10-16T05:37:08.449Z,99.90
2022-10-16T05:39:40.251Z,99.90
2022-10-16T05:42:12.000Z,99.90
2022-10-16T05:44:43.155Z,99.90
2022-10-16T05:47:16.985Z,99.90
2022-10-16T05:49:50.867Z,99.90
2022-10-16T05:52:22.314Z,99.90
2022-10-16T05:54:53.504Z,99.90
2022-10-16T05:57:26.091Z,99.90
2022-10-16T05:59:57.559Z,99.90
2022-10-16T06:02:29.030Z,99.90
2022-10-16T06:05:02.794Z,99.90
2022-10-16T06:07:38.285Z,99.90
2022-10-16T06:10:11.413Z,99.90
2022-10-16T06:12:42.765Z,99.90
2022-10-16T06:15:14.254Z,99.90
2022-10-16T06:17:45.671Z,99.90
2022-10-16T06:20:19.500Z,99.90
2022-10-16T06:22:50.878Z,99.90
2022-10-16T06:25:22.249Z,99.90
2022-10-16T06:27:53.730Z,99.90
2022-10-16T06:30:24.905Z,99.90
2022-10-16T06:35:49.999Z,99.90
2022-10-16T06:38:21.466Z,99.90
2022-10-16T06:40:52.595Z,99.90
2022-10-16T06:43:24.026Z,99.90
2022-10-16T06:45:56.760Z,99.90
2022-10-16T06:48:29.634Z,99.90
2022-10-16T06:54:05.905Z,99.90
2022-10-16T06:56:37.629Z,99.90
2022-10-16T06:59:09.541Z,99.90
2022-10-16T07:01:41.036Z,99.90
2022-10-16T07:04:12.689Z,99.90
2022-10-16T07:06:46.449Z,99.90
2022-10-16T07:09:19.061Z,99.90
2022-10-16T07:11:53.118Z,99.90
2022-10-16T07:14:26.088Z,99.90
2022-10-16T07:16:57.682Z,97.90
2022-10-16T07:19:31.909Z,98.40
2022-10-16T07:22:07.743Z,98.60
2022-10-16T07:24:39.206Z,99.90
2022-10-16T07:27:10.343Z,99.90
2022-10-16T07:29:41.751Z,99.40
2022-10-16T07:32:12.948Z,93.90
2022-10-16T07:34:44.615Z,99.90
2022-10-16T07:37:18.381Z,92.70
2022-10-16T07:39:49.737Z,99.70
2022-10-16T07:42:21.271Z,99.90
2022-10-16T07:44:52.765Z,91.50
2022-10-16T07:47:24.289Z,96.30
2022-10-16T07:49:55.954Z,98.80
2022-10-16T07:52:29.913Z,99.90
2022-10-16T07:55:01.273Z,98.80
2022-10-16T07:57:32.833Z,94.10
2022-10-16T08:00:04.286Z,99.00
2022-10-16T08:02:43.444Z,97.90
2022-10-16T08:05:14.870Z,91.30
2022-10-16T08:07:52.688Z,96.70
2022-10-16T08:10:26.544Z,98.60
2022-10-16T08:12:58.083Z,91.00
2022-10-16T08:15:29.533Z,97.30
2022-10-16T08:18:01.793Z,96.10
2022-10-16T08:20:34.168Z,98.40
2022-10-16T08:23:09.872Z,99.50
2022-10-16T08:25:41.744Z,95.60
2022-10-16T08:28:15.064Z,94.00
2022-10-16T08:30:46.572Z,94.80
2022-10-16T08:33:18.146Z,84.50
2022-10-16T08:35:55.462Z,90.00
2022-10-16T08:38:29.389Z,88.20
2022-10-16T08:41:13.683Z,89.40
2022-10-16T08:44:16.616Z,92.40
2022-10-16T08:47:09.473Z,84.80
2022-10-16T08:52:53.091Z,85.20
2022-10-16T08:55:42.441Z,88.60
2022-10-16T08:58:17.598Z,86.50
2022-10-16T09:01:15.898Z,87.90
2022-10-16T09:04:08.461Z,79.50
2022-10-16T09:06:48.570Z,87.50
2022-10-16T09:09:39.511Z,90.10
2022-10-16T09:12:20.583Z,83.10
2022-10-16T09:15:02.639Z,81.00
2022-10-16T09:17:50.855Z,81.80
2022-10-16T09:20:32.018Z,82.40
2022-10-16T09:23:20.115Z,88.10
2022-10-16T09:25:53.678Z,85.80
2022-10-16T09:28:27.644Z,84.10
2022-10-16T09:30:59.192Z,79.80
2022-10-16T09:33:36.960Z,84.70
2022-10-16T09:36:09.951Z,91.80
2022-10-16T09:38:41.594Z,86.70
2022-10-16T09:41:21.063Z,89.80
2022-10-16T09:43:58.477Z,88.80
2022-10-16T09:46:31.888Z,90.50
2022-10-16T09:49:04.701Z,90.70
2022-10-16T09:51:38.227Z,92.00
2022-10-16T09:54:19.703Z,89.10
2022-10-16T09:56:53.139Z,90.60
2022-10-16T09:59:28.311Z,92.30
2022-10-16T10:02:02.018Z,87.40
2022-10-16T10:04:43.537Z,83.70
2022-10-16T10:07:22.631Z,80.30
2022-10-16T10:09:53.853Z,81.60
2022-10-16T10:12:27.647Z,87.80
2022-10-16T10:15:07.714Z,90.90
2022-10-16T10:17:50.902Z,83.10
2022-10-16T10:20:32.223Z,91.50
2022-10-16T10:23:04.712Z,81.30
2022-10-16T10:25:43.067Z,89.40
2022-10-16T10:28:29.027Z,83.20
2022-10-16T10:31:08.716Z,91.90
2022-10-16T10:33:48.362Z,92.80
2022-10-16T10:36:31.755Z,92.30
2022-10-16T10:39:05.426Z,88.50
2022-10-16T10:42:05.083Z,85.20
2022-10-16T10:45:07.179Z,90.70
2022-10-16T10:47:51.162Z,84.00
2022-10-16T10:50:29.157Z,90.80
2022-10-16T10:53:13.381Z,90.60
2022-10-16T10:55:49.819Z,88.30
2022-10-16T10:58:48.660Z,92.00
2022-10-16T11:01:22.896Z,93.30
2022-10-16T11:04:38.536Z,91.70
2022-10-16T11:07:19.628Z,90.40
2022-10-16T11:09:55.845Z,91.60
2022-10-16T11:12:33.673Z,92.40
2022-10-16T11:15:15.471Z,92.70
2022-10-16T11:17:51.851Z,92.40
2022-10-16T11:20:26.682Z,87.30
2022-10-16T11:23:05.024Z,87.40
2022-10-16T11:25:37.213Z,83.80
2022-10-16T11:28:15.406Z,90.00
2022-10-16T11:30:51.346Z,87.40
2022-10-16T11:33:36.282Z,86.20
2022-10-16T11:36:15.683Z,91.10
2022-10-16T11:38:57.812Z,85.40
2022-10-16T11:41:33.879Z,91.80
2022-10-16T11:44:19.922Z,91.70
2022-10-16T11:47:28.806Z,93.80
2022-10-16T11:49:57.195Z,91.00
2022-10-16T11:52:35.731Z,83.20
2022-10-16T11:55:19.330Z,82.40
2022-10-16T11:57:54.023Z,81.40
2022-10-16T12:00:28.551Z,80.30
2022-10-16T12:03:09.526Z,82.30
2022-10-16T12:05:59.374Z,83.90
2022-10-16T12:08:31.394Z,87.00
2022-10-16T12:11:26.141Z,83.10
2022-10-16T12:14:09.434Z,82.00
2022-10-16T12:16:42.477Z,82.90
2022-10-16T12:19:17.725Z,82.00
2022-10-16T12:21:50.270Z,82.70
2022-10-16T12:24:35.282Z,80.40
2022-10-16T12:27:22.835Z,83.00
2022-10-16T12:30:00.209Z,80.80
2022-10-16T12:32:46.741Z,82.70
2022-10-16T12:35:24.911Z,83.90
2022-10-16T12:37:57.238Z,82.90
2022-10-16T12:40:32.427Z,81.40
2022-10-16T12:43:30.479Z,82.10
2022-10-16T12:46:24.459Z,85.10
2022-10-16T12:49:06.586Z,79.50
2022-10-16T12:51:40.932Z,79.30
2022-10-16T12:54:18.308Z,79.60
2022-10-16T12:57:00.930Z,79.80
2022-10-16T12:59:48.301Z,81.20
2022-10-16T13:02:52.694Z,80.30
2022-10-16T13:05:38.940Z,85.00
2022-10-16T13:08:30.423Z,86.10
2022-10-16T13:11:09.338Z,90.10
2022-10-16T13:14:07.533Z,90.70
2022-10-16T13:16:53.721Z,89.30
2022-10-16T13:19:33.212Z,87.70
2022-10-16T13:22:10.331Z,86.30
2022-10-16T13:24:53.604Z,91.10
2022-10-16T13:27:35.050Z,91.50
2022-10-16T13:30:16.541Z,90.20
2022-10-16T13:35:54.165Z,90.30
2022-10-16T13:38:28.215Z,89.30
2022-10-16T13:41:01.685Z,94.50
2022-10-16T13:43:37.942Z,93.00
2022-10-16T13:46:15.516Z,93.20
2022-10-16T13:49:00.819Z,92.30
2022-10-16T13:51:33.043Z,90.90
2022-10-16T13:54:04.565Z,95.50
2022-10-16T13:56:37.015Z,94.30
2022-10-16T13:59:27.820Z,92.40
2022-10-16T14:02:01.305Z,94.90
2022-10-16T14:04:36.995Z,95.40
2022-10-16T14:07:08.989Z,90.60
2022-10-16T14:09:41.046Z,94.90
2022-10-16T14:12:16.234Z,92.00
2022-10-16T14:14:50.244Z,94.60
2022-10-16T14:17:24.731Z,92.70
2022-10-16T14:20:02.568Z,92.90
2022-10-16T14:22:38.031Z,89.70
2022-10-16T14:25:27.553Z,93.10
2022-10-16T14:28:07.694Z,90.80
2022-10-16T14:30:40.112Z,91.30
2022-10-16T14:33:25.758Z,93.50
2022-10-16T14:36:08.876Z,91.60
2022-10-16T14:38:41.240Z,94.60
2022-10-16T14:41:13.586Z,92.60
2022-10-16T14:43:51.539Z,92.80
2022-10-16T14:46:27.186Z,91.30
2022-10-16T14:49:04.990Z,93.60
2022-10-16T14:51:39.717Z,90.70
2022-10-16T14:54:13.227Z,91.20
2022-10-16T14:56:51.808Z,85.80
2022-10-16T14:59:28.874Z,88.50
2022-10-16T15:02:00.460Z,90.10
2022-10-16T15:04:31.701Z,90.60
2022-10-16T15:07:05.775Z,86.80
2022-10-16T15:09:37.007Z,91.20
2022-10-16T15:12:09.644Z,90.60
2022-10-16T15:14:41.646Z,89.10
2022-10-16T15:17:15.475Z,90.50
2022-10-16T15:19:48.722Z,91.20
2022-10-16T15:22:24.473Z,91.20
2022-10-16T15:24:55.906Z,90.70
2022-10-16T15:27:28.051Z,92.00
2022-10-16T15:29:59.875Z,90.60
2022-10-16T15:32:31.391Z,90.90
2022-10-16T15:35:02.719Z,91.40
2022-10-16T15:37:37.128Z,93.00
2022-10-16T15:40:09.773Z,91.70
2022-10-16T15:42:41.244Z,92.00
2022-10-16T15:45:14.291Z,93.70
2022-10-16T15:47:46.625Z,94.20
2022-10-16T15:50:20.256Z,94.10
2022-10-16T15:52:55.300Z,95.60
2022-10-16T15:55:27.095Z,95.10
2022-10-16T15:57:58.271Z,95.80
2022-10-16T16:00:29.289Z,97.30
2022-10-16T16:03:00.805Z,96.30
2022-10-16T16:05:32.287Z,98.50
2022-10-16T16:08:06.434Z,96.60
2022-10-16T16:10:37.679Z,97.00
2022-10-16T16:13:09.352Z,98.60
2022-10-16T16:15:44.415Z,97.40
2022-10-16T16:18:15.840Z,97.70
2022-10-16T16:20:47.128Z,97.80
2022-10-16T16:23:21.301Z,98.20
2022-10-16T16:26:08.662Z,98.40
2022-10-16T16:28:40.212Z,99.30
2022-10-16T16:31:12.058Z,98.50
2022-10-16T16:33:43.331Z,99.90
2022-10-16T16:36:16.293Z,99.90
2022-10-16T16:38:51.004Z,99.90
2022-10-16T16:41:24.564Z,99.80
2022-10-16T16:43:56.474Z,99.90
2022-10-16T16:46:27.813Z,99.90
2022-10-16T16:49:01.644Z,99.90
2022-10-16T16:51:36.978Z,99.90
2022-10-16T16:54:15.891Z,99.90
2022-10-16T16:56:47.706Z,99.90
2022-10-16T16:59:23.131Z,99.90
2022-10-16T17:01:57.138Z,99.90
2022-10-16T17:04:29.153Z,99.90
2022-10-16T17:07:00.664Z,99.90
2022-10-16T17:09:36.360Z,99.90
2022-10-16T17:12:07.941Z,99.90
2022-10-16T17:14:39.433Z,99.90
2022-10-16T17:17:10.789Z,99.90
2022-10-16T17:19:42.361Z,99.90
2022-10-16T17:22:13.555Z,99.90
2022-10-16T17:24:47.856Z,99.90
2022-10-16T17:27:20.219Z,99.90
2022-10-16T17:29:55.334Z,99.90
2022-10-16T17:32:27.005Z,99.90
2022-10-16T17:34:58.751Z,99.90
2022-10-16T17:37:30.408Z,99.90
2022-10-16T17:40:04.743Z,99.90
2022-10-16T17:42:35.984Z,99.90
2022-10-16T17:45:09.050Z,99.90
2022-10-16T17:47:42.061Z,99.90
2022-10-16T17:50:15.710Z,99.90
2022-10-16T17:52:47.285Z,99.90
2022-10-16T17:55:24.931Z,99.90
2022-10-16T17:57:58.609Z,99.90
2022-10-16T18:00:31.459Z,99.90
2022-10-16T18:03:02.896Z,99.90
2022-10-16T18:05:34.434Z,99.90
2022-10-16T18:08:05.776Z,99.90
2022-10-16T18:10:40.055Z,99.90
2022-10-16T18:13:12.031Z,99.90
2022-10-16T18:15:43.212Z,99.90
2022-10-16T18:18:14.645Z,99.90
2022-10-16T18:20:46.230Z,99.90
2022-10-16T18:23:18.102Z,99.90
2022-10-16T18:25:56.239Z,99.90
2022-10-16T18:28:28.533Z,99.90
2022-10-16T18:31:01.725Z,99.90
2022-10-16T18:33:34.443Z,99.90
2022-10-16T18:36:07.454Z,99.90
2022-10-16T18:38:39.939Z,99.90
2022-10-16T18:41:14.425Z,99.90
2022-10-16T18:43:48.078Z,99.90
2022-10-16T18:46:21.097Z,99.90
2022-10-16T18:48:54.526Z,99.90
2022-10-16T18:51:29.538Z,99.90
2022-10-16T18:54:03.787Z,99.90
2022-10-16T18:56:39.065Z,99.90
2022-10-16T18:59:12.144Z,99.90
2022-10-16T19:01:44.760Z,99.90
2022-10-16T19:04:17.159Z,99.90
2022-10-16T19:06:50.691Z,99.90
2022-10-16T19:09:24.082Z,99.90
2022-10-16T19:11:59.922Z,99.90
2022-10-16T19:14:33.090Z,99.90
2022-10-16T19:17:04.662Z,99.90
2022-10-16T19:19:38.526Z,99.90
2022-10-16T19:22:28.231Z,99.90
2022-10-16T19:25:00.990Z,99.90
2022-10-16T19:27:35.366Z,99.90
2022-10-16T19:30:07.700Z,99.90
2022-10-16T19:32:39.951Z,99.90
2022-10-16T19:35:12.792Z,99.90
2022-10-16T19:37:44.497Z,99.90
2022-10-16T19:40:15.806Z,99.90
2022-10-16T19:42:50.769Z,99.90
2022-10-16T19:45:22.303Z,99.90
2022-10-16T19:47:54.265Z,99.90
2022-10-16T19:50:25.835Z,99.90
2022-10-16T19:52:57.992Z,99.90
2022-10-16T19:55:29.697Z,99.90
2022-10-16T19:58:04.086Z,99.90
2022-10-16T20:00:35.677Z,99.90
2022-10-16T20:03:07.807Z,99.90
2022-10-16T20:05:39.610Z,99.90
2022-10-16T20:08:11.236Z,99.90
2022-10-16T20:10:42.550Z,99.90
2022-10-16T20:13:17.040Z,99.90
2022-10-16T20:15:48.990Z,99.90
2022-10-16T20:18:21.287Z,99.90
2022-10-16T20:20:53.534Z,99.90
2022-10-16T20:23:25.802Z,99.90
2022-10-16T20:25:59.161Z,99.90
2022-10-16T20:28:35.678Z,99.90
2022-10-16T20:31:12.178Z,99.90
2022-10-16T20:33:43.908Z,99.90
2022-10-16T20:36:16.262Z,99.90
2022-10-16T20:38:48.452Z,99.90
2022-10-16T20:41:21.234Z,99.90
2022-10-16T20:43:56.019Z,99.90
2022-10-16T20:46:29.124Z,99.90
2022-10-16T20:49:11.188Z,99.90
2022-10-16T20:51:53.242Z,99.90
2022-10-16T20:54:24.875Z,99.90
2022-10-16T20:56:56.088Z,99.90
2022-10-16T20:59:30.231Z,99.90
2022-10-16T21:02:01.495Z,99.90
2022-10-16T21:04:34.177Z,99.90
2022-10-16T21:07:05.040Z,99.90
2022-10-16T21:09:36.350Z,99.90
2022-10-16T21:12:07.765Z,99.90
2022-10-16T21:14:51.085Z,99.90
2022-10-16T21:17:34.259Z,99.90
2022-10-16T21:20:05.941Z,99.90
2022-10-16T21:22:37.198Z,99.90
2022-10-16T21:25:09.785Z,99.90
2022-10-16T21:27:41.486Z,99.90
2022-10-16T21:30:16.033Z,99.90
2022-10-16T21:32:47.293Z,99.90
2022-10-16T21:35:18.902Z,99.90
2022-10-16T21:37:52.164Z,99.90
2022-10-16T21:40:23.640Z,99.90
2022-10-16T21:42:55.079Z,99.90
2022-10-16T21:45:29.114Z,99.90
2022-10-16T21:48:00.329Z,99.90
2022-10-16T21:50:31.713Z,99.90
2022-10-16T21:53:02.933Z,99.90
2022-10-16T21:55:38.425Z,99.90
2022-10-16T21:58:09.561Z,99.90
2022-10-16T22:00:43.624Z,99.90
2022-10-16T22:03:14.881Z,99.90
2022-10-16T22:05:46.539Z,99.90
2022-10-16T22:08:18.727Z,99.90
2022-10-16T22:10:50.151Z,99.90
2022-10-16T22:13:21.274Z,99.90
2022-10-16T22:15:56.215Z,99.90
2022-10-16T22:18:27.573Z,99.90
2022-10-16T22:20:59.091Z,99.90
2022-10-16T22:23:30.347Z,99.90
2022-10-16T22:26:02.949Z,99.90
2022-10-16T22:28:33.936Z,99.90
2022-10-16T22:31:09.677Z,99.90
2022-10-16T22:33:41.311Z,99.90
2022-10-16T22:36:16.249Z,99.90
2022-10-16T22:38:47.475Z,99.90
2022-10-16T22:41:19.599Z,99.90
2022-10-16T22:43:51.852Z,99.90
2022-10-16T22:46:28.479Z,99.90
2022-10-16T22:49:00.043Z,99.90
2022-10-16T22:51:31.647Z,99.90
2022-10-16T22:54:02.851Z,99.90
2022-10-16T22:56:34.455Z,99.90
2022-10-16T22:59:05.854Z,99.90
2022-10-16T23:01:42.316Z,99.90
2022-10-16T23:04:13.497Z,99.90
2022-10-16T23:06:44.980Z,99.90
2022-10-16T23:09:16.143Z,99.90
2022-10-16T23:11:47.486Z,99.90
2022-10-16T23:14:23.297Z,99.90
2022-10-16T23:16:57.401Z,99.90
2022-10-16T23:19:28.655Z,99.90
2022-10-16T23:22:00.031Z,99.90
2022-10-16T23:24:33.026Z,99.90
2022-10-16T23:27:04.513Z,99.90
2022-10-16T23:29:36.000Z,99.90
2022-10-16T23:32:09.997Z,99.90
2022-10-16T23:34:41.202Z,99.90
2022-10-16T23:37:12.658Z,99.90
2022-10-16T23:39:43.830Z,99.90
2022-10-16T23:42:15.427Z,99.90
2022-10-16T23:44:46.644Z,99.90
2022-10-16T23:47:20.619Z,99.90
2022-10-16T23:49:51.832Z,99.90
2022-10-16T23:52:23.373Z,99.90
2022-10-16T23:54:54.650Z,99.90
2022-10-16T23:57:26.370Z,99.90
2022-10-16T23:59:57.767Z,99.90
